sensor_id;sensor_type;location;lat;lon;timestamp;P1;durP1;ratioP1;P2;durP2;ratioP2
69573;SDS011;62840;52.366;5.980;2023-06-22T00:00:28;4.33;;;2.17;;
69573;SDS011;62840;52.366;5.980;2023-06-22T00:02:54;4.57;;;2.40;;
69573;SDS011;62840;52.366;5.980;2023-06-22T00:05:19;3.80;;;2.03;;
69573;SDS011;62840;52.366;5.980;2023-06-22T00:07:48;5.80;;;2.20;;
69573;SDS011;62840;52.366;5.980;2023-06-22T00:10:14;4.20;;;2.00;;
69573;SDS011;62840;52.366;5.980;2023-06-22T00:12:39;4.23;;;1.80;;
69573;SDS011;62840;52.366;5.980;2023-06-22T00:15:05;4.50;;;2.03;;
69573;SDS011;62840;52.366;5.980;2023-06-22T00:17:32;4.65;;;2.17;;
69573;SDS011;62840;52.366;5.980;2023-06-22T00:19:57;4.20;;;2.10;;
69573;SDS011;62840;52.366;5.980;2023-06-22T00:22:23;3.88;;;2.10;;
69573;SDS011;62840;52.366;5.980;2023-06-22T00:24:51;4.43;;;2.30;;
69573;SDS011;62840;52.366;5.980;2023-06-22T00:27:17;4.90;;;2.20;;
69573;SDS011;62840;52.366;5.980;2023-06-22T00:29:43;5.50;;;2.40;;
69573;SDS011;62840;52.366;5.980;2023-06-22T00:32:08;4.82;;;2.60;;
69573;SDS011;62840;52.366;5.980;2023-06-22T00:34:34;4.20;;;2.20;;
69573;SDS011;62840;52.366;5.980;2023-06-22T00:37:00;4.05;;;2.08;;
69573;SDS011;62840;52.366;5.980;2023-06-22T00:39:26;4.60;;;2.50;;
69573;SDS011;62840;52.366;5.980;2023-06-22T00:41:54;4.70;;;2.33;;
69573;SDS011;62840;52.366;5.980;2023-06-22T00:44:20;4.55;;;2.40;;
69573;SDS011;62840;52.366;5.980;2023-06-22T00:46:45;5.17;;;2.63;;
69573;SDS011;62840;52.366;5.980;2023-06-22T00:49:11;5.40;;;2.70;;
69573;SDS011;62840;52.366;5.980;2023-06-22T00:51:37;4.60;;;2.30;;
69573;SDS011;62840;52.366;5.980;2023-06-22T00:54:04;4.20;;;2.10;;
69573;SDS011;62840;52.366;5.980;2023-06-22T00:56:30;5.18;;;2.00;;
69573;SDS011;62840;52.366;5.980;2023-06-22T00:58:59;4.72;;;2.17;;
69573;SDS011;62840;52.366;5.980;2023-06-22T01:01:26;4.93;;;2.65;;
69573;SDS011;62840;52.366;5.980;2023-06-22T01:03:51;4.50;;;2.30;;
69573;SDS011;62840;52.366;5.980;2023-06-22T01:06:19;5.45;;;2.42;;
69573;SDS011;62840;52.366;5.980;2023-06-22T01:08:56;4.78;;;2.38;;
69573;SDS011;62840;52.366;5.980;2023-06-22T01:11:32;5.00;;;2.40;;
69573;SDS011;62840;52.366;5.980;2023-06-22T01:14:10;4.60;;;2.38;;
69573;SDS011;62840;52.366;5.980;2023-06-22T01:16:45;4.72;;;2.40;;
69573;SDS011;62840;52.366;5.980;2023-06-22T01:19:19;4.43;;;2.20;;
69573;SDS011;62840;52.366;5.980;2023-06-22T01:22:00;4.95;;;2.30;;
69573;SDS011;62840;52.366;5.980;2023-06-22T01:24:30;4.63;;;2.20;;
69573;SDS011;62840;52.366;5.980;2023-06-22T01:27:09;4.50;;;2.70;;
69573;SDS011;62840;52.366;5.980;2023-06-22T01:29:55;4.65;;;2.10;;
69573;SDS011;62840;52.366;5.980;2023-06-22T01:32:23;5.18;;;2.58;;
69573;SDS011;62840;52.366;5.980;2023-06-22T01:34:49;6.30;;;2.70;;
69573;SDS011;62840;52.366;5.980;2023-06-22T01:37:16;4.80;;;2.40;;
69573;SDS011;62840;52.366;5.980;2023-06-22T01:39:42;5.65;;;2.25;;
69573;SDS011;62840;52.366;5.980;2023-06-22T01:42:10;4.65;;;2.55;;
69573;SDS011;62840;52.366;5.980;2023-06-22T01:44:36;4.60;;;2.17;;
69573;SDS011;62840;52.366;5.980;2023-06-22T01:47:06;4.78;;;2.38;;
69573;SDS011;62840;52.366;5.980;2023-06-22T01:49:33;5.53;;;2.77;;
69573;SDS011;62840;52.366;5.980;2023-06-22T01:51:58;5.65;;;2.85;;
69573;SDS011;62840;52.366;5.980;2023-06-22T01:54:24;7.23;;;2.63;;
69573;SDS011;62840;52.366;5.980;2023-06-22T01:56:50;5.50;;;2.70;;
69573;SDS011;62840;52.366;5.980;2023-06-22T01:59:17;6.57;;;3.20;;
69573;SDS011;62840;52.366;5.980;2023-06-22T02:01:54;5.60;;;2.90;;
69573;SDS011;62840;52.366;5.980;2023-06-22T02:04:30;6.10;;;2.63;;
69573;SDS011;62840;52.366;5.980;2023-06-22T02:07:05;5.40;;;2.72;;
69573;SDS011;62840;52.366;5.980;2023-06-22T02:09:39;5.00;;;3.00;;
69573;SDS011;62840;52.366;5.980;2023-06-22T02:12:09;4.87;;;2.70;;
69573;SDS011;62840;52.366;5.980;2023-06-22T02:14:38;6.45;;;2.55;;
69573;SDS011;62840;52.366;5.980;2023-06-22T02:17:07;4.75;;;2.78;;
69573;SDS011;62840;52.366;5.980;2023-06-22T02:19:38;6.05;;;3.17;;
69573;SDS011;62840;52.366;5.980;2023-06-22T02:22:06;6.05;;;3.15;;
69573;SDS011;62840;52.366;5.980;2023-06-22T02:24:32;6.87;;;3.10;;
69573;SDS011;62840;52.366;5.980;2023-06-22T02:26:58;7.68;;;3.80;;
69573;SDS011;62840;52.366;5.980;2023-06-22T02:29:25;5.18;;;2.80;;
69573;SDS011;62840;52.366;5.980;2023-06-22T02:31:51;5.82;;;3.05;;
69573;SDS011;62840;52.366;5.980;2023-06-22T02:34:17;5.55;;;2.95;;
69573;SDS011;62840;52.366;5.980;2023-06-22T02:36:45;5.73;;;3.43;;
69573;SDS011;62840;52.366;5.980;2023-06-22T02:39:12;6.85;;;3.50;;
69573;SDS011;62840;52.366;5.980;2023-06-22T02:41:38;6.50;;;3.63;;
69573;SDS011;62840;52.366;5.980;2023-06-22T02:44:03;6.10;;;3.20;;
69573;SDS011;62840;52.366;5.980;2023-06-22T02:46:29;7.38;;;3.28;;
69573;SDS011;62840;52.366;5.980;2023-06-22T02:48:55;6.45;;;3.20;;
69573;SDS011;62840;52.366;5.980;2023-06-22T02:51:21;6.05;;;3.38;;
69573;SDS011;62840;52.366;5.980;2023-06-22T02:53:49;6.97;;;3.80;;
69573;SDS011;62840;52.366;5.980;2023-06-22T02:56:15;6.55;;;3.70;;
69573;SDS011;62840;52.366;5.980;2023-06-22T02:58:41;6.00;;;3.08;;
69573;SDS011;62840;52.366;5.980;2023-06-22T03:01:06;6.50;;;3.27;;
69573;SDS011;62840;52.366;5.980;2023-06-22T03:03:32;8.38;;;3.25;;
69573;SDS011;62840;52.366;5.980;2023-06-22T03:05:58;7.93;;;3.67;;
69573;SDS011;62840;52.366;5.980;2023-06-22T03:08:24;6.40;;;3.95;;
69573;SDS011;62840;52.366;5.980;2023-06-22T03:10:52;7.27;;;3.80;;
69573;SDS011;62840;52.366;5.980;2023-06-22T03:13:18;7.00;;;3.55;;
69573;SDS011;62840;52.366;5.980;2023-06-22T03:15:43;8.20;;;3.38;;
69573;SDS011;62840;52.366;5.980;2023-06-22T03:18:09;6.47;;;3.93;;
69573;SDS011;62840;52.366;5.980;2023-06-22T03:20:35;6.57;;;3.55;;
69573;SDS011;62840;52.366;5.980;2023-06-22T03:23:00;6.40;;;3.83;;
69573;SDS011;62840;52.366;5.980;2023-06-22T03:25:26;7.05;;;4.10;;
69573;SDS011;62840;52.366;5.980;2023-06-22T03:27:54;6.40;;;3.20;;
69573;SDS011;62840;52.366;5.980;2023-06-22T03:30:21;5.93;;;3.55;;
69573;SDS011;62840;52.366;5.980;2023-06-22T03:32:47;8.25;;;3.63;;
69573;SDS011;62840;52.366;5.980;2023-06-22T03:35:12;6.23;;;3.47;;
69573;SDS011;62840;52.366;5.980;2023-06-22T03:37:38;6.53;;;3.35;;
69573;SDS011;62840;52.366;5.980;2023-06-22T03:40:05;7.72;;;4.30;;
69573;SDS011;62840;52.366;5.980;2023-06-22T03:42:33;8.45;;;4.35;;
69573;SDS011;62840;52.366;5.980;2023-06-22T03:45:01;8.70;;;4.83;;
69573;SDS011;62840;52.366;5.980;2023-06-22T03:47:28;7.70;;;4.18;;
69573;SDS011;62840;52.366;5.980;2023-06-22T03:49:54;7.68;;;3.95;;
69573;SDS011;62840;52.366;5.980;2023-06-22T03:52:20;6.97;;;4.00;;
69573;SDS011;62840;52.366;5.980;2023-06-22T03:54:46;7.50;;;4.53;;
69573;SDS011;62840;52.366;5.980;2023-06-22T03:57:12;9.85;;;4.32;;
69573;SDS011;62840;52.366;5.980;2023-06-22T03:59:37;7.80;;;4.20;;
69573;SDS011;62840;52.366;5.980;2023-06-22T04:02:06;7.30;;;4.20;;
69573;SDS011;62840;52.366;5.980;2023-06-22T04:04:31;8.40;;;4.30;;
69573;SDS011;62840;52.366;5.980;2023-06-22T04:06:57;8.88;;;5.15;;
69573;SDS011;62840;52.366;5.980;2023-06-22T04:09:23;8.83;;;4.90;;
69573;SDS011;62840;52.366;5.980;2023-06-22T04:11:49;8.68;;;4.78;;
69573;SDS011;62840;52.366;5.980;2023-06-22T04:14:14;8.47;;;5.00;;
69573;SDS011;62840;52.366;5.980;2023-06-22T04:16:40;9.15;;;4.88;;
69573;SDS011;62840;52.366;5.980;2023-06-22T04:19:09;9.35;;;4.70;;
69573;SDS011;62840;52.366;5.980;2023-06-22T04:21:34;9.90;;;4.87;;
69573;SDS011;62840;52.366;5.980;2023-06-22T04:24:00;8.38;;;5.07;;
69573;SDS011;62840;52.366;5.980;2023-06-22T04:26:26;8.70;;;5.40;;
69573;SDS011;62840;52.366;5.980;2023-06-22T04:28:51;9.15;;;5.45;;
69573;SDS011;62840;52.366;5.980;2023-06-22T04:31:17;11.95;;;5.80;;
69573;SDS011;62840;52.366;5.980;2023-06-22T04:33:43;9.32;;;5.38;;
69573;SDS011;62840;52.366;5.980;2023-06-22T04:36:12;9.27;;;4.90;;
69573;SDS011;62840;52.366;5.980;2023-06-22T04:38:37;11.40;;;5.40;;
69573;SDS011;62840;52.366;5.980;2023-06-22T04:41:03;9.60;;;5.80;;
69573;SDS011;62840;52.366;5.980;2023-06-22T04:43:29;13.13;;;6.15;;
69573;SDS011;62840;52.366;5.980;2023-06-22T04:45:54;11.00;;;6.23;;
69573;SDS011;62840;52.366;5.980;2023-06-22T04:48:20;14.10;;;7.45;;
69573;SDS011;62840;52.366;5.980;2023-06-22T04:50:46;12.00;;;6.13;;
69573;SDS011;62840;52.366;5.980;2023-06-22T04:53:14;12.75;;;6.47;;
69573;SDS011;62840;52.366;5.980;2023-06-22T04:55:40;11.98;;;6.47;;
69573;SDS011;62840;52.366;5.980;2023-06-22T04:58:06;12.60;;;6.63;;
69573;SDS011;62840;52.366;5.980;2023-06-22T05:00:32;14.30;;;7.32;;
69573;SDS011;62840;52.366;5.980;2023-06-22T05:02:58;13.30;;;6.82;;
69573;SDS011;62840;52.366;5.980;2023-06-22T05:05:24;13.73;;;6.97;;
69573;SDS011;62840;52.366;5.980;2023-06-22T05:07:50;13.68;;;7.18;;
69573;SDS011;62840;52.366;5.980;2023-06-22T05:10:19;14.35;;;7.80;;
69573;SDS011;62840;52.366;5.980;2023-06-22T05:12:45;15.65;;;8.50;;
69573;SDS011;62840;52.366;5.980;2023-06-22T05:15:12;14.95;;;8.38;;
69573;SDS011;62840;52.366;5.980;2023-06-22T05:17:37;13.40;;;7.82;;
69573;SDS011;62840;52.366;5.980;2023-06-22T05:20:04;15.55;;;8.52;;
69573;SDS011;62840;52.366;5.980;2023-06-22T05:22:32;14.23;;;8.33;;
69573;SDS011;62840;52.366;5.980;2023-06-22T05:24:58;15.27;;;8.80;;
69573;SDS011;62840;52.366;5.980;2023-06-22T05:27:26;16.67;;;8.70;;
69573;SDS011;62840;52.366;5.980;2023-06-22T05:29:52;15.02;;;8.65;;
69573;SDS011;62840;52.366;5.980;2023-06-22T05:32:18;15.57;;;9.25;;
69573;SDS011;62840;52.366;5.980;2023-06-22T05:34:43;20.60;;;8.90;;
69573;SDS011;62840;52.366;5.980;2023-06-22T05:37:09;23.80;;;9.38;;
69573;SDS011;62840;52.366;5.980;2023-06-22T05:39:35;23.50;;;9.13;;
69573;SDS011;62840;52.366;5.980;2023-06-22T05:42:01;27.65;;;9.38;;
69573;SDS011;62840;52.366;5.980;2023-06-22T05:44:30;23.63;;;9.85;;
69573;SDS011;62840;52.366;5.980;2023-06-22T05:46:56;25.88;;;11.57;;
69573;SDS011;62840;52.366;5.980;2023-06-22T05:49:22;20.90;;;10.95;;
69573;SDS011;62840;52.366;5.980;2023-06-22T05:51:48;20.70;;;10.53;;
69573;SDS011;62840;52.366;5.980;2023-06-22T05:54:13;24.92;;;12.32;;
69573;SDS011;62840;52.366;5.980;2023-06-22T05:56:39;21.17;;;11.17;;
69573;SDS011;62840;52.366;5.980;2023-06-22T05:59:05;21.52;;;10.80;;
69573;SDS011;62840;52.366;5.980;2023-06-22T06:01:33;24.30;;;10.90;;
69573;SDS011;62840;52.366;5.980;2023-06-22T06:03:59;20.95;;;11.45;;
69573;SDS011;62840;52.366;5.980;2023-06-22T06:06:24;22.00;;;13.13;;
69573;SDS011;62840;52.366;5.980;2023-06-22T06:08:50;20.50;;;12.30;;
69573;SDS011;62840;52.366;5.980;2023-06-22T06:11:16;22.37;;;13.20;;
69573;SDS011;62840;52.366;5.980;2023-06-22T06:13:41;20.73;;;12.85;;
69573;SDS011;62840;52.366;5.980;2023-06-22T06:16:07;20.03;;;12.10;;
69573;SDS011;62840;52.366;5.980;2023-06-22T06:18:35;23.02;;;14.07;;
69573;SDS011;62840;52.366;5.980;2023-06-22T06:21:01;21.00;;;12.15;;
69573;SDS011;62840;52.366;5.980;2023-06-22T06:23:27;20.93;;;12.23;;
69573;SDS011;62840;52.366;5.980;2023-06-22T06:25:53;19.48;;;13.20;;
69573;SDS011;62840;52.366;5.980;2023-06-22T06:28:18;20.73;;;13.17;;
69573;SDS011;62840;52.366;5.980;2023-06-22T06:30:44;21.55;;;13.55;;
69573;SDS011;62840;52.366;5.980;2023-06-22T06:33:10;20.40;;;12.90;;
69573;SDS011;62840;52.366;5.980;2023-06-22T06:35:38;21.73;;;12.60;;
69573;SDS011;62840;52.366;5.980;2023-06-22T06:38:04;22.87;;;13.40;;
69573;SDS011;62840;52.366;5.980;2023-06-22T06:40:30;21.27;;;13.30;;
69573;SDS011;62840;52.366;5.980;2023-06-22T06:42:56;20.05;;;12.68;;
69573;SDS011;62840;52.366;5.980;2023-06-22T06:45:22;18.87;;;12.00;;
69573;SDS011;62840;52.366;5.980;2023-06-22T06:47:49;24.33;;;13.10;;
69573;SDS011;62840;52.366;5.980;2023-06-22T06:50:17;20.67;;;13.52;;
69573;SDS011;62840;52.366;5.980;2023-06-22T06:52:46;21.08;;;12.52;;
69573;SDS011;62840;52.366;5.980;2023-06-22T06:55:12;19.00;;;12.13;;
69573;SDS011;62840;52.366;5.980;2023-06-22T06:57:38;18.27;;;10.60;;
69573;SDS011;62840;52.366;5.980;2023-06-22T07:00:05;17.83;;;10.77;;
69573;SDS011;62840;52.366;5.980;2023-06-22T07:02:33;18.95;;;11.00;;
69573;SDS011;62840;52.366;5.980;2023-06-22T07:04:58;17.03;;;11.03;;
69573;SDS011;62840;52.366;5.980;2023-06-22T07:07:24;21.48;;;11.00;;
69573;SDS011;62840;52.366;5.980;2023-06-22T07:09:52;19.17;;;11.70;;
69573;SDS011;62840;52.366;5.980;2023-06-22T07:12:18;17.75;;;10.85;;
69573;SDS011;62840;52.366;5.980;2023-06-22T07:14:44;19.60;;;11.15;;
69573;SDS011;62840;52.366;5.980;2023-06-22T07:17:09;16.93;;;10.30;;
69573;SDS011;62840;52.366;5.980;2023-06-22T07:19:35;19.55;;;11.45;;
69573;SDS011;62840;52.366;5.980;2023-06-22T07:22:01;16.30;;;9.40;;
69573;SDS011;62840;52.366;5.980;2023-06-22T07:24:27;15.38;;;10.13;;
69573;SDS011;62840;52.366;5.980;2023-06-22T07:26:55;14.13;;;8.73;;
69573;SDS011;62840;52.366;5.980;2023-06-22T07:29:21;13.23;;;8.48;;
69573;SDS011;62840;52.366;5.980;2023-06-22T07:31:47;13.23;;;8.68;;
69573;SDS011;62840;52.366;5.980;2023-06-22T07:34:14;13.63;;;9.15;;
69573;SDS011;62840;52.366;5.980;2023-06-22T07:36:40;12.60;;;8.50;;
69573;SDS011;62840;52.366;5.980;2023-06-22T07:39:06;13.98;;;7.97;;
69573;SDS011;62840;52.366;5.980;2023-06-22T07:41:31;12.13;;;7.57;;
69573;SDS011;62840;52.366;5.980;2023-06-22T07:44:00;16.65;;;9.05;;
69573;SDS011;62840;52.366;5.980;2023-06-22T07:46:27;20.13;;;9.93;;
69573;SDS011;62840;52.366;5.980;2023-06-22T07:48:53;15.20;;;8.40;;
69573;SDS011;62840;52.366;5.980;2023-06-22T07:51:19;14.85;;;8.68;;
69573;SDS011;62840;52.366;5.980;2023-06-22T07:53:45;15.30;;;8.90;;
69573;SDS011;62840;52.366;5.980;2023-06-22T07:56:10;13.40;;;8.07;;
69573;SDS011;62840;52.366;5.980;2023-06-22T07:58:36;13.53;;;9.67;;
69573;SDS011;62840;52.366;5.980;2023-06-22T08:01:05;14.98;;;8.32;;
69573;SDS011;62840;52.366;5.980;2023-06-22T08:03:30;13.27;;;8.52;;
69573;SDS011;62840;52.366;5.980;2023-06-22T08:05:56;13.37;;;8.73;;
69573;SDS011;62840;52.366;5.980;2023-06-22T08:08:22;16.77;;;9.50;;
69573;SDS011;62840;52.366;5.980;2023-06-22T08:10:48;16.53;;;9.87;;
69573;SDS011;62840;52.366;5.980;2023-06-22T08:13:14;14.95;;;9.27;;
69573;SDS011;62840;52.366;5.980;2023-06-22T08:15:39;13.73;;;8.20;;
69573;SDS011;62840;52.366;5.980;2023-06-22T08:18:08;14.27;;;8.88;;
69573;SDS011;62840;52.366;5.980;2023-06-22T08:20:33;11.82;;;7.57;;
69573;SDS011;62840;52.366;5.980;2023-06-22T08:22:59;14.07;;;9.57;;
69573;SDS011;62840;52.366;5.980;2023-06-22T08:25:25;12.30;;;8.88;;
69573;SDS011;62840;52.366;5.980;2023-06-22T08:27:51;15.43;;;8.07;;
69573;SDS011;62840;52.366;5.980;2023-06-22T08:30:17;12.05;;;7.70;;
69573;SDS011;62840;52.366;5.980;2023-06-22T08:32:43;12.77;;;8.55;;
69573;SDS011;62840;52.366;5.980;2023-06-22T08:35:12;15.80;;;9.45;;
69573;SDS011;62840;52.366;5.980;2023-06-22T08:37:37;15.05;;;9.07;;
69573;SDS011;62840;52.366;5.980;2023-06-22T08:40:04;14.88;;;8.80;;
69573;SDS011;62840;52.366;5.980;2023-06-22T08:42:32;13.43;;;7.75;;
69573;SDS011;62840;52.366;5.980;2023-06-22T08:44:58;13.67;;;8.30;;
69573;SDS011;62840;52.366;5.980;2023-06-22T08:47:24;12.45;;;8.38;;
69573;SDS011;62840;52.366;5.980;2023-06-22T08:49:49;13.38;;;8.52;;
69573;SDS011;62840;52.366;5.980;2023-06-22T08:52:18;13.98;;;9.35;;
69573;SDS011;62840;52.366;5.980;2023-06-22T08:54:44;11.98;;;7.30;;
69573;SDS011;62840;52.366;5.980;2023-06-22T08:57:10;11.38;;;7.63;;
69573;SDS011;62840;52.366;5.980;2023-06-22T08:59:36;12.67;;;8.67;;
69573;SDS011;62840;52.366;5.980;2023-06-22T09:02:02;13.88;;;9.25;;
69573;SDS011;62840;52.366;5.980;2023-06-22T09:04:28;15.50;;;8.40;;
69573;SDS011;62840;52.366;5.980;2023-06-22T09:06:53;19.95;;;7.68;;
69573;SDS011;62840;52.366;5.980;2023-06-22T09:09:22;11.27;;;6.90;;
69573;SDS011;62840;52.366;5.980;2023-06-22T09:11:47;10.45;;;6.32;;
69573;SDS011;62840;52.366;5.980;2023-06-22T09:14:13;11.38;;;7.18;;
69573;SDS011;62840;52.366;5.980;2023-06-22T09:16:39;9.47;;;6.60;;
69573;SDS011;62840;52.366;5.980;2023-06-22T09:19:05;9.52;;;6.03;;
69573;SDS011;62840;52.366;5.980;2023-06-22T09:21:30;11.30;;;6.90;;
69573;SDS011;62840;52.366;5.980;2023-06-22T09:23:56;11.15;;;6.40;;
69573;SDS011;62840;52.366;5.980;2023-06-22T09:26:24;10.57;;;6.90;;
69573;SDS011;62840;52.366;5.980;2023-06-22T09:28:50;9.30;;;6.03;;
69573;SDS011;62840;52.366;5.980;2023-06-22T09:31:16;9.38;;;5.60;;
69573;SDS011;62840;52.366;5.980;2023-06-22T09:33:42;8.30;;;5.73;;
69573;SDS011;62840;52.366;5.980;2023-06-22T09:36:08;12.45;;;7.65;;
69573;SDS011;62840;52.366;5.980;2023-06-22T09:38:34;15.07;;;9.13;;
69573;SDS011;62840;52.366;5.980;2023-06-22T09:41:00;15.15;;;9.93;;
69573;SDS011;62840;52.366;5.980;2023-06-22T09:43:28;13.88;;;8.88;;
69573;SDS011;62840;52.366;5.980;2023-06-22T09:45:56;13.23;;;9.05;;
69573;SDS011;62840;52.366;5.980;2023-06-22T09:48:22;12.27;;;8.43;;
69573;SDS011;62840;52.366;5.980;2023-06-22T09:50:47;12.25;;;8.25;;
69573;SDS011;62840;52.366;5.980;2023-06-22T09:53:13;11.13;;;7.17;;
69573;SDS011;62840;52.366;5.980;2023-06-22T09:55:39;16.50;;;7.25;;
69573;SDS011;62840;52.366;5.980;2023-06-22T09:58:05;10.83;;;7.50;;
69573;SDS011;62840;52.366;5.980;2023-06-22T10:00:33;11.93;;;7.68;;
69573;SDS011;62840;52.366;5.980;2023-06-22T10:02:59;10.32;;;7.70;;
69573;SDS011;62840;52.366;5.980;2023-06-22T10:05:25;10.97;;;6.80;;
69573;SDS011;62840;52.366;5.980;2023-06-22T10:07:50;12.60;;;8.27;;
69573;SDS011;62840;52.366;5.980;2023-06-22T10:10:16;14.30;;;7.77;;
69573;SDS011;62840;52.366;5.980;2023-06-22T10:12:43;13.73;;;8.38;;
69573;SDS011;62840;52.366;5.980;2023-06-22T10:15:12;13.50;;;8.40;;
69573;SDS011;62840;52.366;5.980;2023-06-22T10:17:40;11.88;;;8.75;;
69573;SDS011;62840;52.366;5.980;2023-06-22T10:20:07;10.63;;;7.00;;
69573;SDS011;62840;52.366;5.980;2023-06-22T10:22:34;10.85;;;6.82;;
69573;SDS011;62840;52.366;5.980;2023-06-22T10:24:59;11.13;;;7.13;;
69573;SDS011;62840;52.366;5.980;2023-06-22T10:27:25;10.97;;;6.57;;
69573;SDS011;62840;52.366;5.980;2023-06-22T10:29:51;11.98;;;7.25;;
69573;SDS011;62840;52.366;5.980;2023-06-22T10:32:17;10.17;;;6.27;;
69573;SDS011;62840;52.366;5.980;2023-06-22T10:34:45;9.60;;;5.78;;
69573;SDS011;62840;52.366;5.980;2023-06-22T10:37:11;9.77;;;5.90;;
69573;SDS011;62840;52.366;5.980;2023-06-22T10:39:36;9.02;;;5.68;;
69573;SDS011;62840;52.366;5.980;2023-06-22T10:42:02;10.23;;;7.10;;
69573;SDS011;62840;52.366;5.980;2023-06-22T10:44:28;11.80;;;7.43;;
69573;SDS011;62840;52.366;5.980;2023-06-22T10:46:54;10.98;;;6.78;;
69573;SDS011;62840;52.366;5.980;2023-06-22T10:49:20;9.40;;;6.63;;
69573;SDS011;62840;52.366;5.980;2023-06-22T10:51:48;10.20;;;6.72;;
69573;SDS011;62840;52.366;5.980;2023-06-22T10:54:14;11.43;;;6.53;;
69573;SDS011;62840;52.366;5.980;2023-06-22T10:56:40;9.95;;;6.60;;
69573;SDS011;62840;52.366;5.980;2023-06-22T10:59:05;11.57;;;6.38;;
69573;SDS011;62840;52.366;5.980;2023-06-22T11:01:31;10.13;;;6.60;;
69573;SDS011;62840;52.366;5.980;2023-06-22T11:03:57;11.02;;;6.68;;
69573;SDS011;62840;52.366;5.980;2023-06-22T11:06:22;9.43;;;5.90;;
69573;SDS011;62840;52.366;5.980;2023-06-22T11:08:51;10.70;;;6.75;;
69573;SDS011;62840;52.366;5.980;2023-06-22T11:11:16;9.07;;;6.07;;
69573;SDS011;62840;52.366;5.980;2023-06-22T11:13:42;12.48;;;7.20;;
69573;SDS011;62840;52.366;5.980;2023-06-22T11:16:08;10.83;;;7.37;;
69573;SDS011;62840;52.366;5.980;2023-06-22T11:18:34;13.38;;;7.47;;
69573;SDS011;62840;52.366;5.980;2023-06-22T11:21:00;11.95;;;6.35;;
69573;SDS011;62840;52.366;5.980;2023-06-22T11:23:26;13.93;;;6.27;;
69573;SDS011;62840;52.366;5.980;2023-06-22T11:25:54;10.27;;;6.47;;
69573;SDS011;62840;52.366;5.980;2023-06-22T11:28:20;9.93;;;6.07;;
69573;SDS011;62840;52.366;5.980;2023-06-22T11:30:46;9.60;;;6.27;;
69573;SDS011;62840;52.366;5.980;2023-06-22T11:33:11;11.90;;;6.57;;
69573;SDS011;62840;52.366;5.980;2023-06-22T11:35:37;10.47;;;6.00;;
69573;SDS011;62840;52.366;5.980;2023-06-22T11:38:03;9.95;;;6.00;;
69573;SDS011;62840;52.366;5.980;2023-06-22T11:40:29;9.03;;;5.80;;
69573;SDS011;62840;52.366;5.980;2023-06-22T11:42:57;9.45;;;6.40;;
69573;SDS011;62840;52.366;5.980;2023-06-22T11:45:23;9.93;;;6.43;;
69573;SDS011;62840;52.366;5.980;2023-06-22T11:47:49;10.77;;;6.63;;
69573;SDS011;62840;52.366;5.980;2023-06-22T11:50:14;10.10;;;6.05;;
69573;SDS011;62840;52.366;5.980;2023-06-22T11:52:40;8.63;;;5.80;;
69573;SDS011;62840;52.366;5.980;2023-06-22T11:55:06;9.55;;;5.70;;
69573;SDS011;62840;52.366;5.980;2023-06-22T11:57:33;8.20;;;5.35;;
69573;SDS011;62840;52.366;5.980;2023-06-22T12:00:03;11.23;;;6.78;;
69573;SDS011;62840;52.366;5.980;2023-06-22T12:02:30;11.55;;;7.60;;
69573;SDS011;62840;52.366;5.980;2023-06-22T12:04:56;14.55;;;6.15;;
69573;SDS011;62840;52.366;5.980;2023-06-22T12:07:21;10.90;;;6.73;;
69573;SDS011;62840;52.366;5.980;2023-06-22T12:09:47;10.32;;;6.07;;
69573;SDS011;62840;52.366;5.980;2023-06-22T12:12:13;7.97;;;5.03;;
69573;SDS011;62840;52.366;5.980;2023-06-22T12:14:38;9.20;;;6.28;;
69573;SDS011;62840;52.366;5.980;2023-06-22T12:17:07;11.03;;;5.73;;
69573;SDS011;62840;52.366;5.980;2023-06-22T12:19:32;9.32;;;5.35;;
69573;SDS011;62840;52.366;5.980;2023-06-22T12:21:58;8.52;;;5.88;;
69573;SDS011;62840;52.366;5.980;2023-06-22T12:24:24;7.30;;;5.27;;
69573;SDS011;62840;52.366;5.980;2023-06-22T12:26:50;7.47;;;5.00;;
69573;SDS011;62840;52.366;5.980;2023-06-22T12:29:15;7.90;;;4.80;;
69573;SDS011;62840;52.366;5.980;2023-06-22T12:31:41;8.45;;;5.90;;
69573;SDS011;62840;52.366;5.980;2023-06-22T12:34:09;9.73;;;5.60;;
69573;SDS011;62840;52.366;5.980;2023-06-22T12:36:35;7.38;;;4.93;;
69573;SDS011;62840;52.366;5.980;2023-06-22T12:39:01;8.57;;;5.80;;
69573;SDS011;62840;52.366;5.980;2023-06-22T12:41:27;8.52;;;5.90;;
69573;SDS011;62840;52.366;5.980;2023-06-22T12:43:52;8.95;;;6.00;;
69573;SDS011;62840;52.366;5.980;2023-06-22T12:46:18;8.17;;;5.60;;
69573;SDS011;62840;52.366;5.980;2023-06-22T12:48:44;8.85;;;5.90;;
69573;SDS011;62840;52.366;5.980;2023-06-22T12:51:19;10.27;;;5.90;;
69573;SDS011;62840;52.366;5.980;2023-06-22T12:53:46;14.85;;;5.95;;
69573;SDS011;62840;52.366;5.980;2023-06-22T12:56:11;8.63;;;5.28;;
69573;SDS011;62840;52.366;5.980;2023-06-22T12:58:37;12.20;;;6.03;;
69573;SDS011;62840;52.366;5.980;2023-06-22T13:01:03;7.93;;;5.13;;
69573;SDS011;62840;52.366;5.980;2023-06-22T13:03:29;8.65;;;5.38;;
69573;SDS011;62840;52.366;5.980;2023-06-22T13:05:55;6.90;;;5.35;;
69573;SDS011;62840;52.366;5.980;2023-06-22T13:08:23;8.10;;;5.20;;
69573;SDS011;62840;52.366;5.980;2023-06-22T13:10:49;6.70;;;4.60;;
69573;SDS011;62840;52.366;5.980;2023-06-22T13:13:14;8.38;;;5.28;;
69573;SDS011;62840;52.366;5.980;2023-06-22T13:15:40;8.03;;;5.57;;
69573;SDS011;62840;52.366;5.980;2023-06-22T13:18:06;8.68;;;5.80;;
69573;SDS011;62840;52.366;5.980;2023-06-22T13:20:31;7.17;;;5.13;;
69573;SDS011;62840;52.366;5.980;2023-06-22T13:22:57;8.88;;;5.60;;
69573;SDS011;62840;52.366;5.980;2023-06-22T13:25:25;8.63;;;5.00;;
69573;SDS011;62840;52.366;5.980;2023-06-22T13:27:51;9.40;;;5.78;;
69573;SDS011;62840;52.366;5.980;2023-06-22T13:30:17;8.00;;;5.53;;
69573;SDS011;62840;52.366;5.980;2023-06-22T13:32:43;7.67;;;5.50;;
69573;SDS011;62840;52.366;5.980;2023-06-22T13:35:09;8.63;;;5.68;;
69573;SDS011;62840;52.366;5.980;2023-06-22T13:37:35;8.03;;;5.63;;
69573;SDS011;62840;52.366;5.980;2023-06-22T13:40:00;10.43;;;6.03;;
69573;SDS011;62840;52.366;5.980;2023-06-22T13:42:29;10.00;;;5.50;;
69573;SDS011;62840;52.366;5.980;2023-06-22T13:44:54;7.20;;;5.33;;
69573;SDS011;62840;52.366;5.980;2023-06-22T13:47:20;9.57;;;6.03;;
69573;SDS011;62840;52.366;5.980;2023-06-22T13:49:46;9.47;;;6.20;;
69573;SDS011;62840;52.366;5.980;2023-06-22T13:52:12;7.75;;;5.65;;
69573;SDS011;62840;52.366;5.980;2023-06-22T13:54:37;9.10;;;5.43;;
69573;SDS011;62840;52.366;5.980;2023-06-22T13:57:04;7.82;;;5.20;;
69573;SDS011;62840;52.366;5.980;2023-06-22T13:59:33;10.80;;;5.70;;
69573;SDS011;62840;52.366;5.980;2023-06-22T14:01:59;9.63;;;5.60;;
69573;SDS011;62840;52.366;5.980;2023-06-22T14:04:25;7.83;;;5.50;;
69573;SDS011;62840;52.366;5.980;2023-06-22T14:06:51;9.20;;;5.22;;
69573;SDS011;62840;52.366;5.980;2023-06-22T14:09:17;9.20;;;5.57;;
69573;SDS011;62840;52.366;5.980;2023-06-22T14:11:42;7.32;;;5.40;;
69573;SDS011;62840;52.366;5.980;2023-06-22T14:14:08;8.53;;;5.27;;
69573;SDS011;62840;52.366;5.980;2023-06-22T14:16:36;9.10;;;5.88;;
69573;SDS011;62840;52.366;5.980;2023-06-22T14:19:02;8.73;;;5.40;;
69573;SDS011;62840;52.366;5.980;2023-06-22T14:21:28;7.23;;;5.50;;
69573;SDS011;62840;52.366;5.980;2023-06-22T14:23:54;9.70;;;6.13;;
69573;SDS011;62840;52.366;5.980;2023-06-22T14:26:20;8.57;;;5.57;;
69573;SDS011;62840;52.366;5.980;2023-06-22T14:28:46;7.80;;;6.28;;
69573;SDS011;62840;52.366;5.980;2023-06-22T14:31:13;7.82;;;5.45;;
69573;SDS011;62840;52.366;5.980;2023-06-22T14:33:43;8.52;;;5.15;;
69573;SDS011;62840;52.366;5.980;2023-06-22T14:36:11;7.60;;;5.75;;